sensor_id;sensor_type;location;lat;lon;timestamp;P1;P2;P0
54869;PMS5003;40756;-37.950;145.008;2023-08-07T00:01:00;11;10;
54869;PMS5003;40756;-37.950;145.008;2023-08-07T00:03:30;10;9;
54869;PMS5003;40756;-37.950;145.008;2023-08-07T00:05:59;8;8;
54869;PMS5003;40756;-37.950;145.008;2023-08-07T00:08:30;7;7;
54869;PMS5003;40756;-37.950;145.008;2023-08-07T00:11:08;6;5;
54869;PMS5003;40756;-37.950;145.008;2023-08-07T00:13:37;7;6;
54869;PMS5003;40756;-37.950;145.008;2023-08-07T00:16:07;6;6;
54869;PMS5003;40756;-37.950;145.008;2023-08-07T00:18:37;6;6;
54869;PMS5003;40756;-37.950;145.008;2023-08-07T00:21:06;4;4;
54869;PMS5003;40756;-37.950;145.008;2023-08-07T00:24:28;15;12;
54869;PMS5003;40756;-37.950;145.008;2023-08-07T00:26:58;7;7;
54869;PMS5003;40756;-37.950;145.008;2023-08-07T00:29:32;6;6;
54869;PMS5003;40756;-37.950;145.008;2023-08-07T00:32:02;6;6;
54869;PMS5003;40756;-37.950;145.008;2023-08-07T00:34:32;3;3;
54869;PMS5003;40756;-37.950;145.008;2023-08-07T00:37:02;5;5;
54869;PMS5003;40756;-37.950;145.008;2023-08-07T00:39:31;6;6;
54869;PMS5003;40756;-37.950;145.008;2023-08-07T00:42:01;5;5;
54869;PMS5003;40756;-37.950;145.008;2023-08-07T00:44:31;7;6;
54869;PMS5003;40756;-37.950;145.008;2023-08-07T00:47:02;4;4;
54869;PMS5003;40756;-37.950;145.008;2023-08-07T00:49:33;5;5;
54869;PMS5003;40756;-37.950;145.008;2023-08-07T00:52:39;5;5;
54869;PMS5003;40756;-37.950;145.008;2023-08-07T00:55:08;5;5;
54869;PMS5003;40756;-37.950;145.008;2023-08-07T00:57:38;7;7;
54869;PMS5003;40756;-37.950;145.008;2023-08-07T01:00:08;21;20;
54869;PMS5003;40756;-37.950;145.008;2023-08-07T01:02:38;31;31;
54869;PMS5003;40756;-37.950;145.008;2023-08-07T01:05:08;12;12;
54869;PMS5003;40756;-37.950;145.008;2023-08-07T01:07:37;33;33;
54869;PMS5003;40756;-37.950;145.008;2023-08-07T01:10:08;36;36;
54869;PMS5003;40756;-37.950;145.008;2023-08-07T01:12:40;12;12;
54869;PMS5003;40756;-37.950;145.008;2023-08-07T01:15:16;13;13;
54869;PMS5003;40756;-37.950;145.008;2023-08-07T01:17:49;39;39;
54869;PMS5003;40756;-37.950;145.008;2023-08-07T01:20:19;12;11;
54869;PMS5003;40756;-37.950;145.008;2023-08-07T01:22:49;69;69;
54869;PMS5003;40756;-37.950;145.008;2023-08-07T01:25:19;13;13;
54869;PMS5003;40756;-37.950;145.008;2023-08-07T01:27:52;19;19;
54869;PMS5003;40756;-37.950;145.008;2023-08-07T01:30:35;17;17;
54869;PMS5003;40756;-37.950;145.008;2023-08-07T01:33:10;31;31;
54869;PMS5003;40756;-37.950;145.008;2023-08-07T01:35:46;100;100;
54869;PMS5003;40756;-37.950;145.008;2023-08-07T01:38:19;10;10;
54869;PMS5003;40756;-37.950;145.008;2023-08-07T01:40:52;85;84;
54869;PMS5003;40756;-37.950;145.008;2023-08-07T01:43:21;21;21;
54869;PMS5003;40756;-37.950;145.008;2023-08-07T01:45:51;32;32;
54869;PMS5003;40756;-37.950;145.008;2023-08-07T01:48:21;25;25;
54869;PMS5003;40756;-37.950;145.008;2023-08-07T01:50:52;25;25;
54869;PMS5003;40756;-37.950;145.008;2023-08-07T01:53:21;9;8;
54869;PMS5003;40756;-37.950;145.008;2023-08-07T01:55:51;9;9;
54869;PMS5003;40756;-37.950;145.008;2023-08-07T01:58:21;7;7;
54869;PMS5003;40756;-37.950;145.008;2023-08-07T02:00:50;5;4;
54869;PMS5003;40756;-37.950;145.008;2023-08-07T02:03:20;3;2;
54869;PMS5003;40756;-37.950;145.008;2023-08-07T02:05:49;19;18;
54869;PMS5003;40756;-37.950;145.008;2023-08-07T02:08:19;11;9;
54869;PMS5003;40756;-37.950;145.008;2023-08-07T02:10:50;9;9;
54869;PMS5003;40756;-37.950;145.008;2023-08-07T02:13:19;7;7;
54869;PMS5003;40756;-37.950;145.008;2023-08-07T02:15:49;18;18;
54869;PMS5003;40756;-37.950;145.008;2023-08-07T02:18:18;34;33;
54869;PMS5003;40756;-37.950;145.008;2023-08-07T02:20:48;9;7;
54869;PMS5003;40756;-37.950;145.008;2023-08-07T02:23:18;14;14;
54869;PMS5003;40756;-37.950;145.008;2023-08-07T02:25:48;45;44;
54869;PMS5003;40756;-37.950;145.008;2023-08-07T02:28:18;69;69;
54869;PMS5003;40756;-37.950;145.008;2023-08-07T02:30:48;6;6;
54869;PMS5003;40756;-37.950;145.008;2023-08-07T02:33:18;7;6;
54869;PMS5003;40756;-37.950;145.008;2023-08-07T02:35:48;10;10;
54869;PMS5003;40756;-37.950;145.008;2023-08-07T02:38:17;11;11;
54869;PMS5003;40756;-37.950;145.008;2023-08-07T02:40:47;16;16;
54869;PMS5003;40756;-37.950;145.008;2023-08-07T02:43:17;28;28;
54869;PMS5003;40756;-37.950;145.008;2023-08-07T02:45:46;48;48;
54869;PMS5003;40756;-37.950;145.008;2023-08-07T02:48:16;41;40;
54869;PMS5003;40756;-37.950;145.008;2023-08-07T02:50:46;32;32;
54869;PMS5003;40756;-37.950;145.008;2023-08-07T02:53:15;82;82;
54869;PMS5003;40756;-37.950;145.008;2023-08-07T02:55:44;94;94;
54869;PMS5003;40756;-37.950;145.008;2023-08-07T02:58:13;53;53;
54869;PMS5003;40756;-37.950;145.008;2023-08-07T03:00:43;16;16;
54869;PMS5003;40756;-37.950;145.008;2023-08-07T03:03:12;50;50;
54869;PMS5003;40756;-37.950;145.008;2023-08-07T03:05:47;37;37;
54869;PMS5003;40756;-37.950;145.008;2023-08-07T03:08:18;38;38;
54869;PMS5003;40756;-37.950;145.008;2023-08-07T03:10:52;33;33;
54869;PMS5003;40756;-37.950;145.008;2023-08-07T03:13:24;83;83;
54869;PMS5003;40756;-37.950;145.008;2023-08-07T03:15:59;20;20;
54869;PMS5003;40756;-37.950;145.008;2023-08-07T03:18:29;15;15;
54869;PMS5003;40756;-37.950;145.008;2023-08-07T03:21:00;15;15;
54869;PMS5003;40756;-37.950;145.008;2023-08-07T03:23:29;12;12;
54869;PMS5003;40756;-37.950;145.008;2023-08-07T03:26:03;15;15;
54869;PMS5003;40756;-37.950;145.008;2023-08-07T03:29:19;0;0;
54869;PMS5003;40756;-37.950;145.008;2023-08-07T03:31:49;1;1;
54869;PMS5003;40756;-37.950;145.008;2023-08-07T03:34:18;11;11;
54869;PMS5003;40756;-37.950;145.008;2023-08-07T03:36:48;12;11;
54869;PMS5003;40756;-37.950;145.008;2023-08-07T03:39:18;12;12;
54869;PMS5003;40756;-37.950;145.008;2023-08-07T03:41:48;1;1;
54869;PMS5003;40756;-37.950;145.008;2023-08-07T03:44:18;1;1;
54869;PMS5003;40756;-37.950;145.008;2023-08-07T03:46:48;0;0;
54869;PMS5003;40756;-37.950;145.008;2023-08-07T03:49:17;1;0;
54869;PMS5003;40756;-37.950;145.008;2023-08-07T03:51:47;1;0;
54869;PMS5003;40756;-37.950;145.008;2023-08-07T03:54:17;1;1;
54869;PMS5003;40756;-37.950;145.008;2023-08-07T03:56:46;0;0;
54869;PMS5003;40756;-37.950;145.008;2023-08-07T03:59:16;0;0;
54869;PMS5003;40756;-37.950;145.008;2023-08-07T04:01:45;0;0;
54869;PMS5003;40756;-37.950;145.008;2023-08-07T04:04:15;0;0;
54869;PMS5003;40756;-37.950;145.008;2023-08-07T04:06:45;0;0;
54869;PMS5003;40756;-37.950;145.008;2023-08-07T04:09:14;0;0;
54869;PMS5003;40756;-37.950;145.008;2023-08-07T04:11:45;0;0;
54869;PMS5003;40756;-37.950;145.008;2023-08-07T04:14:15;0;0;
54869;PMS5003;40756;-37.950;145.008;2023-08-07T04:16:44;0;0;
54869;PMS5003;40756;-37.950;145.008;2023-08-07T04:20:06;0;0;
54869;PMS5003;40756;-37.950;145.008;2023-08-07T04:22:36;0;0;
54869;PMS5003;40756;-37.950;145.008;2023-08-07T04:25:06;0;0;
54869;PMS5003;40756;-37.950;145.008;2023-08-07T04:27:36;0;0;
54869;PMS5003;40756;-37.950;145.008;2023-08-07T04:30:07;0;0;
54869;PMS5003;40756;-37.950;145.008;2023-08-07T04:33:17;0;0;
54869;PMS5003;40756;-37.950;145.008;2023-08-07T04:35:47;0;0;
54869;PMS5003;40756;-37.950;145.008;2023-08-07T04:38:16;1;1;
54869;PMS5003;40756;-37.950;145.008;2023-08-07T04:40:48;0;0;
54869;PMS5003;40756;-37.950;145.008;2023-08-07T04:43:18;2;2;
54869;PMS5003;40756;-37.950;145.008;2023-08-07T04:45:47;0;0;
54869;PMS5003;40756;-37.950;145.008;2023-08-07T04:48:17;0;0;
54869;PMS5003;40756;-37.950;145.008;2023-08-07T04:50:47;0;0;
54869;PMS5003;40756;-37.950;145.008;2023-08-07T04:53:16;1;1;
54869;PMS5003;40756;-37.950;145.008;2023-08-07T04:55:46;0;0;
54869;PMS5003;40756;-37.950;145.008;2023-08-07T04:58:16;0;0;
54869;PMS5003;40756;-37.950;145.008;2023-08-07T05:00:45;1;1;
54869;PMS5003;40756;-37.950;145.008;2023-08-07T05:03:15;0;0;
54869;PMS5003;40756;-37.950;145.008;2023-08-07T05:05:44;0;0;
54869;PMS5003;40756;-37.950;145.008;2023-08-07T05:08:14;0;0;
54869;PMS5003;40756;-37.950;145.008;2023-08-07T05:10:44;0;0;
54869;PMS5003;40756;-37.950;145.008;2023-08-07T05:13:14;0;0;
54869;PMS5003;40756;-37.950;145.008;2023-08-07T05:15:46;0;0;
54869;PMS5003;40756;-37.950;145.008;2023-08-07T05:18:16;0;0;
54869;PMS5003;40756;-37.950;145.008;2023-08-07T05:20:45;0;0;
54869;PMS5003;40756;-37.950;145.008;2023-08-07T05:24:00;0;0;
54869;PMS5003;40756;-37.950;145.008;2023-08-07T05:26:31;1;1;
54869;PMS5003;40756;-37.950;145.008;2023-08-07T05:29:00;0;0;
54869;PMS5003;40756;-37.950;145.008;2023-08-07T05:31:30;0;0;
54869;PMS5003;40756;-37.950;145.008;2023-08-07T05:33:59;0;0;
54869;PMS5003;40756;-37.950;145.008;2023-08-07T05:36:29;0;0;
54869;PMS5003;40756;-37.950;145.008;2023-08-07T05:38:59;0;0;
54869;PMS5003;40756;-37.950;145.008;2023-08-07T05:41:28;0;0;
54869;PMS5003;40756;-37.950;145.008;2023-08-07T05:43:58;0;0;
54869;PMS5003;40756;-37.950;145.008;2023-08-07T05:46:27;1;0;
54869;PMS5003;40756;-37.950;145.008;2023-08-07T05:48:57;0;0;
54869;PMS5003;40756;-37.950;145.008;2023-08-07T05:51:27;0;0;
54869;PMS5003;40756;-37.950;145.008;2023-08-07T05:53:56;0;0;
54869;PMS5003;40756;-37.950;145.008;2023-08-07T05:56:26;0;0;
54869;PMS5003;40756;-37.950;145.008;2023-08-07T05:58:56;0;0;
54869;PMS5003;40756;-37.950;145.008;2023-08-07T06:01:25;1;0;
54869;PMS5003;40756;-37.950;145.008;2023-08-07T06:03:55;3;2;
54869;PMS5003;40756;-37.950;145.008;2023-08-07T06:06:25;2;0;
54869;PMS5003;40756;-37.950;145.008;2023-08-07T06:08:54;1;1;
54869;PMS5003;40756;-37.950;145.008;2023-08-07T06:11:24;0;0;
54869;PMS5003;40756;-37.950;145.008;2023-08-07T06:13:55;0;0;
54869;PMS5003;40756;-37.950;145.008;2023-08-07T06:16:25;4;4;
54869;PMS5003;40756;-37.950;145.008;2023-08-07T06:18:55;0;0;
54869;PMS5003;40756;-37.950;145.008;2023-08-07T06:21:24;1;0;
54869;PMS5003;40756;-37.950;145.008;2023-08-07T06:23:54;0;0;
54869;PMS5003;40756;-37.950;145.008;2023-08-07T06:26:24;0;0;
54869;PMS5003;40756;-37.950;145.008;2023-08-07T06:28:53;2;2;
54869;PMS5003;40756;-37.950;145.008;2023-08-07T06:31:23;1;1;
54869;PMS5003;40756;-37.950;145.008;2023-08-07T06:33:52;1;1;
54869;PMS5003;40756;-37.950;145.008;2023-08-07T06:36:22;4;3;
54869;PMS5003;40756;-37.950;145.008;2023-08-07T06:38:52;1;1;
54869;PMS5003;40756;-37.950;145.008;2023-08-07T06:42:14;0;0;
54869;PMS5003;40756;-37.950;145.008;2023-08-07T06:44:44;0;0;
54869;PMS5003;40756;-37.950;145.008;2023-08-07T06:47:14;3;3;
54869;PMS5003;40756;-37.950;145.008;2023-08-07T06:49:44;3;3;
54869;PMS5003;40756;-37.950;145.008;2023-08-07T06:52:13;1;1;
54869;PMS5003;40756;-37.950;145.008;2023-08-07T06:54:43;0;0;
54869;PMS5003;40756;-37.950;145.008;2023-08-07T06:57:12;2;2;
54869;PMS5003;40756;-37.950;145.008;2023-08-07T06:59:42;1;1;
54869;PMS5003;40756;-37.950;145.008;2023-08-07T07:02:12;3;2;
54869;PMS5003;40756;-37.950;145.008;2023-08-07T07:04:42;2;2;
54869;PMS5003;40756;-37.950;145.008;2023-08-07T07:07:12;5;5;
54869;PMS5003;40756;-37.950;145.008;2023-08-07T07:09:42;4;4;
54869;PMS5003;40756;-37.950;145.008;2023-08-07T07:12:11;1;1;
54869;PMS5003;40756;-37.950;145.008;2023-08-07T07:14:42;2;2;
54869;PMS5003;40756;-37.950;145.008;2023-08-07T07:17:11;4;4;
54869;PMS5003;40756;-37.950;145.008;2023-08-07T07:19:41;7;7;
54869;PMS5003;40756;-37.950;145.008;2023-08-07T07:22:11;12;11;
54869;PMS5003;40756;-37.950;145.008;2023-08-07T07:24:41;14;14;
54869;PMS5003;40756;-37.950;145.008;2023-08-07T07:27:10;16;16;
54869;PMS5003;40756;-37.950;145.008;2023-08-07T07:29:40;20;20;
54869;PMS5003;40756;-37.950;145.008;2023-08-07T07:32:10;8;8;
54869;PMS5003;40756;-37.950;145.008;2023-08-07T07:34:39;33;33;
54869;PMS5003;40756;-37.950;145.008;2023-08-07T07:37:09;15;15;
54869;PMS5003;40756;-37.950;145.008;2023-08-07T07:39:39;63;63;
54869;PMS5003;40756;-37.950;145.008;2023-08-07T07:42:09;12;12;
54869;PMS5003;40756;-37.950;145.008;2023-08-07T07:44:38;11;11;
54869;PMS5003;40756;-37.950;145.008;2023-08-07T07:47:08;12;12;
54869;PMS5003;40756;-37.950;145.008;2023-08-07T07:49:38;5;5;
54869;PMS5003;40756;-37.950;145.008;2023-08-07T07:52:12;2;2;
54869;PMS5003;40756;-37.950;145.008;2023-08-07T07:54:41;3;2;
54869;PMS5003;40756;-37.950;145.008;2023-08-07T07:57:11;4;4;
54869;PMS5003;40756;-37.950;145.008;2023-08-07T07:59:40;3;3;
54869;PMS5003;40756;-37.950;145.008;2023-08-07T08:02:10;4;4;
54869;PMS5003;40756;-37.950;145.008;2023-08-07T08:04:40;5;5;
54869;PMS5003;40756;-37.950;145.008;2023-08-07T08:07:09;13;11;
54869;PMS5003;40756;-37.950;145.008;2023-08-07T08:09:39;16;15;
54869;PMS5003;40756;-37.950;145.008;2023-08-07T08:12:09;16;16;
54869;PMS5003;40756;-37.950;145.008;2023-08-07T08:14:39;31;30;
54869;PMS5003;40756;-37.950;145.008;2023-08-07T08:17:10;29;28;
54869;PMS5003;40756;-37.950;145.008;2023-08-07T08:19:40;23;23;
54869;PMS5003;40756;-37.950;145.008;2023-08-07T08:22:09;18;18;
54869;PMS5003;40756;-37.950;145.008;2023-08-07T08:24:39;20;19;
54869;PMS5003;40756;-37.950;145.008;2023-08-07T08:27:08;26;24;
54869;PMS5003;40756;-37.950;145.008;2023-08-07T08:29:37;21;21;
54869;PMS5003;40756;-37.950;145.008;2023-08-07T08:32:07;31;31;
54869;PMS5003;40756;-37.950;145.008;2023-08-07T08:34:37;32;31;
54869;PMS5003;40756;-37.950;145.008;2023-08-07T08:37:06;42;42;
54869;PMS5003;40756;-37.950;145.008;2023-08-07T08:39:36;38;37;
54869;PMS5003;40756;-37.950;145.008;2023-08-07T08:42:06;41;41;
54869;PMS5003;40756;-37.950;145.008;2023-08-07T08:44:38;19;18;
54869;PMS5003;40756;-37.950;145.008;2023-08-07T08:47:10;36;35;
54869;PMS5003;40756;-37.950;145.008;2023-08-07T08:49:43;43;41;
54869;PMS5003;40756;-37.950;145.008;2023-08-07T08:52:17;43;43;
54869;PMS5003;40756;-37.950;145.008;2023-08-07T08:54:48;43;43;
54869;PMS5003;40756;-37.950;145.008;2023-08-07T08:57:18;51;51;
54869;PMS5003;40756;-37.950;145.008;2023-08-07T08:59:48;54;53;
54869;PMS5003;40756;-37.950;145.008;2023-08-07T09:02:19;60;57;
54869;PMS5003;40756;-37.950;145.008;2023-08-07T09:04:49;57;54;
54869;PMS5003;40756;-37.950;145.008;2023-08-07T09:07:19;49;48;
54869;PMS5003;40756;-37.950;145.008;2023-08-07T09:09:49;40;39;
54869;PMS5003;40756;-37.950;145.008;2023-08-07T09:12:20;82;80;
54869;PMS5003;40756;-37.950;145.008;2023-08-07T09:14:54;106;104;
54869;PMS5003;40756;-37.950;145.008;2023-08-07T09:17:28;68;64;
54869;PMS5003;40756;-37.950;145.008;2023-08-07T09:20:01;63;63;
54869;PMS5003;40756;-37.950;145.008;2023-08-07T09:22:30;60;59;
54869;PMS5003;40756;-37.950;145.008;2023-08-07T09:24:59;62;61;
54869;PMS5003;40756;-37.950;145.008;2023-08-07T09:27:31;32;30;
54869;PMS5003;40756;-37.950;145.008;2023-08-07T09:30:00;24;24;
54869;PMS5003;40756;-37.950;145.008;2023-08-07T09:32:32;13;13;
54869;PMS5003;40756;-37.950;145.008;2023-08-07T09:35:02;17;15;
54869;PMS5003;40756;-37.950;145.008;2023-08-07T09:37:33;12;12;
54869;PMS5003;40756;-37.950;145.008;2023-08-07T09:40:05;14;14;
54869;PMS5003;40756;-37.950;145.008;2023-08-07T09:42:36;14;14;
54869;PMS5003;40756;-37.950;145.008;2023-08-07T09:45:19;14;14;
54869;PMS5003;40756;-37.950;145.008;2023-08-07T09:48:05;11;11;
54869;PMS5003;40756;-37.950;145.008;2023-08-07T09:50:35;13;12;
54869;PMS5003;40756;-37.950;145.008;2023-08-07T09:53:05;14;12;
54869;PMS5003;40756;-37.950;145.008;2023-08-07T09:55:34;12;10;
54869;PMS5003;40756;-37.950;145.008;2023-08-07T09:58:04;13;13;
54869;PMS5003;40756;-37.950;145.008;2023-08-07T10:00:36;21;21;
54869;PMS5003;40756;-37.950;145.008;2023-08-07T10:03:07;79;75;
54869;PMS5003;40756;-37.950;145.008;2023-08-07T10:05:37;51;49;
54869;PMS5003;40756;-37.950;145.008;2023-08-07T10:08:07;41;40;
54869;PMS5003;40756;-37.950;145.008;2023-08-07T10:10:37;25;25;
54869;PMS5003;40756;-37.950;145.008;2023-08-07T10:13:07;24;23;
54869;PMS5003;40756;-37.950;145.008;2023-08-07T10:15:40;16;15;
54869;PMS5003;40756;-37.950;145.008;2023-08-07T10:18:11;13;13;
54869;PMS5003;40756;-37.950;145.008;2023-08-07T10:20:41;21;20;
54869;PMS5003;40756;-37.950;145.008;2023-08-07T10:23:12;47;43;
54869;PMS5003;40756;-37.950;145.008;2023-08-07T10:25:45;55;54;
54869;PMS5003;40756;-37.950;145.008;2023-08-07T10:28:16;31;30;
54869;PMS5003;40756;-37.950;145.008;2023-08-07T10:30:46;29;28;
54869;PMS5003;40756;-37.950;145.008;2023-08-07T10:33:16;19;18;
54869;PMS5003;40756;-37.950;145.008;2023-08-07T10:35:47;24;24;
54869;PMS5003;40756;-37.950;145.008;2023-08-07T10:38:19;30;29;
54869;PMS5003;40756;-37.950;145.008;2023-08-07T10:41:22;25;24;
54869;PMS5003;40756;-37.950;145.008;2023-08-07T10:43:52;19;19;
54869;PMS5003;40756;-37.950;145.008;2023-08-07T10:46:22;20;19;
54869;PMS5003;40756;-37.950;145.008;2023-08-07T10:48:54;16;16;
54869;PMS5003;40756;-37.950;145.008;2023-08-07T10:51:27;13;13;
54869;PMS5003;40756;-37.950;145.008;2023-08-07T10:53:58;14;13;
54869;PMS5003;40756;-37.950;145.008;2023-08-07T10:56:30;17;16;
54869;PMS5003;40756;-37.950;145.008;2023-08-07T10:59:08;23;22;
54869;PMS5003;40756;-37.950;145.008;2023-08-07T11:01:41;18;18;
54869;PMS5003;40756;-37.950;145.008;2023-08-07T11:04:12;16;15;
54869;PMS5003;40756;-37.950;145.008;2023-08-07T11:06:43;15;15;
54869;PMS5003;40756;-37.950;145.008;2023-08-07T11:09:16;15;15;
54869;PMS5003;40756;-37.950;145.008;2023-08-07T11:11:46;18;16;
54869;PMS5003;40756;-37.950;145.008;2023-08-07T11:14:17;15;15;
54869;PMS5003;40756;-37.950;145.008;2023-08-07T11:16:47;17;16;
54869;PMS5003;40756;-37.950;145.008;2023-08-07T11:19:19;13;13;
54869;PMS5003;40756;-37.950;145.008;2023-08-07T11:21:50;16;14;
54869;PMS5003;40756;-37.950;145.008;2023-08-07T11:24:20;12;12;
54869;PMS5003;40756;-37.950;145.008;2023-08-07T11:26:50;16;14;
54869;PMS5003;40756;-37.950;145.008;2023-08-07T11:29:20;17;17;
54869;PMS5003;40756;-37.950;145.008;2023-08-07T11:31:49;18;17;
54869;PMS5003;40756;-37.950;145.008;2023-08-07T11:34:19;22;22;
54869;PMS5003;40756;-37.950;145.008;2023-08-07T11:36:49;24;23;
54869;PMS5003;40756;-37.950;145.008;2023-08-07T11:39:18;24;24;
54869;PMS5003;40756;-37.950;145.008;2023-08-07T11:41:50;23;22;
54869;PMS5003;40756;-37.950;145.008;2023-08-07T11:44:19;30;29;
54869;PMS5003;40756;-37.950;145.008;2023-08-07T11:46:50;26;24;
54869;PMS5003;40756;-37.950;145.008;2023-08-07T11:49:20;27;26;
54869;PMS5003;40756;-37.950;145.008;2023-08-07T11:51:50;23;22;
54869;PMS5003;40756;-37.950;145.008;2023-08-07T11:54:20;32;29;
54869;PMS5003;40756;-37.950;145.008;2023-08-07T11:56:50;31;28;
54869;PMS5003;40756;-37.950;145.008;2023-08-07T11:59:20;20;20;
54869;PMS5003;40756;-37.950;145.008;2023-08-07T12:01:49;20;19;
54869;PMS5003;40756;-37.950;145.008;2023-08-07T12:04:19;21;21;
54869;PMS5003;40756;-37.950;145.008;2023-08-07T12:06:53;26;24;
54869;PMS5003;40756;-37.950;145.008;2023-08-07T12:09:22;25;23;
54869;PMS5003;40756;-37.950;145.008;2023-08-07T12:11:56;23;22;
54869;PMS5003;40756;-37.950;145.008;2023-08-07T12:14:29;19;19;
54869;PMS5003;40756;-37.950;145.008;2023-08-07T12:17:00;18;17;
54869;PMS5003;40756;-37.950;145.008;2023-08-07T12:19:38;19;18;
54869;PMS5003;40756;-37.950;145.008;2023-08-07T12:22:10;22;21;
54869;PMS5003;40756;-37.950;145.008;2023-08-07T12:24:41;22;20;
54869;PMS5003;40756;-37.950;145.008;2023-08-07T12:27:10;21;19;
54869;PMS5003;40756;-37.950;145.008;2023-08-07T12:29:40;24;23;
54869;PMS5003;40756;-37.950;145.008;2023-08-07T12:32:09;23;22;
54869;PMS5003;40756;-37.950;145.008;2023-08-07T12:34:39;27;26;
54869;PMS5003;40756;-37.950;145.008;2023-08-07T12:37:09;26;23;
54869;PMS5003;40756;-37.950;145.008;2023-08-07T12:39:38;24;24;
54869;PMS5003;40756;-37.950;145.008;2023-08-07T12:42:08;28;27;
54869;PMS5003;40756;-37.950;145.008;2023-08-07T12:44:37;26;26;
54869;PMS5003;40756;-37.950;145.008;2023-08-07T12:47:06;29;29;
54869;PMS5003;40756;-37.950;145.008;2023-08-07T12:49:36;28;28;
54869;PMS5003;40756;-37.950;145.008;2023-08-07T12:52:06;26;25;
54869;PMS5003;40756;-37.950;145.008;2023-08-07T12:54:36;30;29;
54869;PMS5003;40756;-37.950;145.008;2023-08-07T12:57:06;28;25;
54869;PMS5003;40756;-37.950;145.008;2023-08-07T12:59:35;28;27;
54869;PMS5003;40756;-37.950;145.008;2023-08-07T13:02:06;23;22;
54869;PMS5003;40756;-37.950;145.008;2023-08-07T13:04:35;27;26;
54869;PMS5003;40756;-37.950;145.008;2023-08-07T13:07:04;28;25;
54869;PMS5003;40756;-37.950;145.008;2023-08-07T13:09:34;27;25;
54869;PMS5003;40756;-37.950;145.008;2023-08-07T13:12:04;25;23;
54869;PMS5003;40756;-37.950;145.008;2023-08-07T13:14:35;24;21;
54869;PMS5003;40756;-37.950;145.008;2023-08-07T13:17:14;23;22;
54869;PMS5003;40756;-37.950;145.008;2023-08-07T13:19:46;25;23;
54869;PMS5003;40756;-37.950;145.008;2023-08-07T13:22:15;22;22;
54869;PMS5003;40756;-37.950;145.008;2023-08-07T13:24:45;24;23;
54869;PMS5003;40756;-37.950;145.008;2023-08-07T13:27:15;23;22;
54869;PMS5003;40756;-37.950;145.008;2023-08-07T13:29:45;26;26;
54869;PMS5003;40756;-37.950;145.008;2023-08-07T13:32:14;23;22;
54869;PMS5003;40756;-37.950;145.008;2023-08-07T13:34:44;26;26;
54869;PMS5003;40756;-37.950;145.008;2023-08-07T13:37:14;26;26;
54869;PMS5003;40756;-37.950;145.008;2023-08-07T13:39:43;34;30;
54869;PMS5003;40756;-37.950;145.008;2023-08-07T13:42:13;31;31;
54869;PMS5003;40756;-37.950;145.008;2023-08-07T13:44:42;32;30;
54869;PMS5003;40756;-37.950;145.008;2023-08-07T13:47:12;27;27;
54869;PMS5003;40756;-37.950;145.008;2023-08-07T13:49:41;34;32;
54869;PMS5003;40756;-37.950;145.008;2023-08-07T13:52:11;27;27;
54869;PMS5003;40756;-37.950;145.008;2023-08-07T13:54:41;22;21;
54869;PMS5003;40756;-37.950;145.008;2023-08-07T13:57:10;27;26;
54869;PMS5003;40756;-37.950;145.008;2023-08-07T13:59:40;23;22;
54869;PMS5003;40756;-37.950;145.008;2023-08-07T14:02:10;22;21;
54869;PMS5003;40756;-37.950;145.008;2023-08-07T14:04:39;25;24;
54869;PMS5003;40756;-37.950;145.008;2023-08-07T14:07:09;20;20;
54869;PMS5003;40756;-37.950;145.008;2023-08-07T14:09:39;22;21;
54869;PMS5003;40756;-37.950;145.008;2023-08-07T14:12:09;19;19;
54869;PMS5003;40756;-37.950;145.008;2023-08-07T14:14:38;23;23;
54869;PMS5003;40756;-37.950;145.008;2023-08-07T14:17:07;20;20;
54869;PMS5003;40756;-37.950;145.008;2023-08-07T14:19:37;21;20;
54869;PMS5003;40756;-37.950;145.008;2023-08-07T14:22:39;19;19;
54869;PMS5003;40756;-37.950;145.008;2023-08-07T14:25:27;22;20;
54869;PMS5003;40756;-37.950;145.008;2023-08-07T14:27:56;19;18;
54869;PMS5003;40756;-37.950;145.008;2023-08-07T14:30:26;19;19;
54869;PMS5003;40756;-37.950;145.008;2023-08-07T14:32:56;15;15;
54869;PMS5003;40756;-37.950;145.008;2023-08-07T14:35:26;18;17;
54869;PMS5003;40756;-37.950;145.008;2023-08-07T14:37:55;17;14;
54869;PMS5003;40756;-37.950;145.008;2023-08-07T14:40:26;20;19;
54869;PMS5003;40756;-37.950;145.008;2023-08-07T14:42:55;19;18;
54869;PMS5003;40756;-37.950;145.008;2023-08-07T14:45:25;19;19;
54869;PMS5003;40756;-37.950;145.008;2023-08-07T14:47:54;18;18;
54869;PMS5003;40756;-37.950;145.008;2023-08-07T14:50:24;18;17;
54869;PMS5003;40756;-37.950;145.008;2023-08-07T14:52:54;21;21;
54869;PMS5003;40756;-37.950;145.008;2023-08-07T14:55:23;16;14;
54869;PMS5003;40756;-37.950;145.008;2023-08-07T14:57:53;21;19;
54869;PMS5003;40756;-37.950;145.008;2023-08-07T15:00:23;19;18;
54869;PMS5003;40756;-37.950;145.008;2023-08-07T15:02:52;17;14;
54869;PMS5003;40756;-37.950;145.008;2023-08-07T15:05:23;22;18;
54869;PMS5003;40756;-37.950;145.008;2023-08-07T15:07:53;18;17;
54869;PMS5003;40756;-37.950;145.008;2023-08-07T15:10:22;20;19;
54869;PMS5003;40756;-37.950;145.008;2023-08-07T15:12:52;21;20;
54869;PMS5003;40756;-37.950;145.008;2023-08-07T15:15:22;19;17;
54869;PMS5003;40756;-37.950;145.008;2023-08-07T15:17:51;18;18;
54869;PMS5003;40756;-37.950;145.008;2023-08-07T15:20:21;14;14;
54869;PMS5003;40756;-37.950;145.008;2023-08-07T15:22:52;17;16;
54869;PMS5003;40756;-37.950;145.008;2023-08-07T15:25:22;14;14;
54869;PMS5003;40756;-37.950;145.008;2023-08-07T15:27:52;14;13;
54869;PMS5003;40756;-37.950;145.008;2023-08-07T15:30:22;14;13;
54869;PMS5003;40756;-37.950;145.008;2023-08-07T15:32:53;14;12;
54869;PMS5003;40756;-37.950;145.008;2023-08-07T15:35:23;12;12;
54869;PMS5003;40756;-37.950;145.008;2023-08-07T15:37:56;14;13;
54869;PMS5003;40756;-37.950;145.008;2023-08-07T15:40:25;16;14;
54869;PMS5003;40756;-37.950;145.008;2023-08-07T15:42:55;13;13;
54869;PMS5003;40756;-37.950;145.008;2023-08-07T15:45:24;14;14;
54869;PMS5003;40756;-37.950;145.008;2023-08-07T15:47:53;13;12;
54869;PMS5003;40756;-37.950;145.008;2023-08-07T15:50:23;16;12;
54869;PMS5003;40756;-37.950;145.008;2023-08-07T15:52:52;16;15;
54869;PMS5003;40756;-37.950;145.008;2023-08-07T15:55:22;35;27;
54869;PMS5003;40756;-37.950;145.008;2023-08-07T15:57:52;48;41;
54869;PMS5003;40756;-37.950;145.008;2023-08-07T16:00:21;33;33;
54869;PMS5003;40756;-37.950;145.008;2023-08-07T16:02:52;35;31;
54869;PMS5003;40756;-37.950;145.008;2023-08-07T16:05:22;30;30;
54869;PMS5003;40756;-37.950;145.008;2023-08-07T16:07:51;35;33;